• Join FlightAware (Why Join?)
  • Login
  • US Flag 
11:18PM EDT


 

Airport Tracker/Info


-or-


 

Live Flight TrackerFlight Track Log ✈ USC105 ✈ 27-Jun-2013 ✈ KBKL - KYIP

Flight Track Log - Related Links

Times and Time Zones

All times are in EDT time to prevent confusion due to time zone crossing. See the USC105 flight status page for this flight to view local times or setup timezone preferences in your user account.

Time Position Orientation Groundspeed Altitude Reporting Facility
EDT Latitude Longitude Course Direction KTS MPH feet Rate Location/Type
11:09PM 41.5586 -81.6931 343° North 141 162 2,200  Level Cleveland Center
11:10PM 41.5894 -81.7297 318° Northwest 134 154 3,200 780 Climbing Cleveland Center
11:11PM 41.5992 -81.7828 284° West 145 167 3,900 780 Climbing Cleveland Center
11:12PM 41.6114 -81.8272 290° West 127 146 4,700 840 Climbing Cleveland Center
11:13PM 41.6275 -81.8747 294° West 131 151 5,700 840 Climbing Cleveland Center
11:14PM 41.6394 -81.9222 289° West 134 154 6,600 900 Climbing Cleveland Center
11:15PM 41.6533 -81.9728 290° West 133 153 7,600 660 Climbing Cleveland Center
11:16PM 41.6656 -82.0064 296° West 138 159 7,900 180 Climbing Cleveland Center
11:17PM 41.6817 -82.0594 292° West 154 177 8,000  Climbing Cleveland Center
11:18PM 41.6956 -82.1097 290° West 158 182 8,000  Level Cleveland Center
11:19PM 41.7114 -82.1631 292° West 153 176 8,000  Level Cleveland Center
11:20PM 41.7253 -82.2133 290° West 153 176 8,000  Level Cleveland Center
11:21PM 41.7392 -82.2611 291° West 150 173 8,000  Level Cleveland Center
11:22PM 41.7550 -82.3144 297° West 151 174 8,000  Level Cleveland Center
11:23PM 41.7708 -82.3789 288° West 152 175 8,000  Level Cleveland Center
11:23PM 41.7808 -82.4014 301° West 151 174 8,000  Level Cleveland Center
11:25PM 41.8006 -82.4772 289° West 147 169 8,000  Level Cleveland Center
11:26PM 41.8247 -82.5281 303° West 146 168 8,000  Level Cleveland Center
11:27PM 41.8447 -82.5761 299° West 150 173 8,000  Level Cleveland Center
11:28PM 41.8667 -82.6269 300° West 148 170 8,000  Level Cleveland Center
11:29PM 41.8844 -82.6750 296° West 148 170 8,000  Level Cleveland Center
11:30PM 41.9047 -82.7175 303° West 149 171 8,000  Level Cleveland Center
11:31PM 41.9225 -82.7656 296° West 148 170 8,000 -60 Level Cleveland Center
11:32PM 41.9464 -82.8222 300° West 150 173 7,900 -240 Descending Cleveland Center
11:33PM 41.9683 -82.8733 300° West 157 181 7,600 -300 Descending Cleveland Center
11:34PM 41.9903 -82.9242 300° West 158 182 7,400 -300 Descending Cleveland Center
11:35PM 42.0119 -82.9781 298° West 162 186 7,100 -360 Descending Cleveland Center
11:36PM 42.0444 -83.0186 317° Northwest 163 188 6,700 -360 Descending Cleveland Center
11:37PM 42.0747 -83.0672 310° West 166 191 6,400 -420 Descending Cleveland Center
11:38PM 42.1011 -83.1075 311° West 166 191 6,000 -420 Descending Cleveland Center
11:39PM 42.1375 -83.1536 317° Northwest 167 192 5,600 -420 Descending Cleveland Center
11:40PM 42.1678 -83.1997 312° West 168 193 5,200 -300 Descending Cleveland Center
11:41PM 42.2042 -83.2461 317° Northwest 163 188 5,000 -120 Descending Cleveland Center
11:42PM 42.2344 -83.2922 312° West 158 182 5,000  Level Cleveland Center
11:43PM 42.2667 -83.3358 315° West 155 178 5,000 -180 Level Cleveland Center
11:44PM 42.2928 -83.3789 309° West 163 188 4,700 -480 Descending Cleveland Center
11:45PM 42.3125 -83.4278 299° West 167 192 4,100 -1,200 Descending Cleveland Center
11:46PM 42.2756 -83.4850 229° Southwest 176 203 2,300 -1,680 Descending Cleveland Center